createdAt,value
2023-03-11T00:01:41.304Z,10.24
2023-03-11T00:04:13.869Z,10.27
2023-03-11T00:06:46.621Z,10.24
2023-03-11T00:09:20.006Z,10.24
2023-03-11T00:11:52.463Z,10.24
2023-03-11T00:14:25.572Z,10.17
2023-03-11T00:16:58.142Z,10.20
2023-03-11T00:19:30.611Z,10.25
2023-03-11T00:22:05.003Z,10.26
2023-03-11T00:24:37.375Z,10.17
2023-03-11T00:27:09.839Z,10.18
2023-03-11T00:29:42.193Z,10.24
2023-03-11T00:32:14.812Z,10.24
2023-03-11T00:34:47.209Z,10.23
2023-03-11T00:37:19.989Z,10.25
2023-03-11T00:39:53.017Z,10.24
2023-03-11T00:42:25.538Z,10.22
2023-03-11T00:44:57.950Z,10.22
2023-03-11T00:47:30.546Z,10.20
2023-03-11T00:50:03.091Z,10.11
2023-03-11T00:52:35.709Z,10.12
2023-03-11T00:55:11.406Z,10.21
2023-03-11T00:57:44.257Z,10.16
2023-03-11T01:00:23.163Z,10.20
2023-03-11T01:02:56.789Z,10.12
2023-03-11T01:05:32.078Z,10.08
2023-03-11T01:08:05.653Z,10.05
2023-03-11T01:10:39.286Z,9.96
2023-03-11T01:13:11.786Z,9.83
2023-03-11T01:15:44.253Z,9.88
2023-03-11T01:18:16.828Z,9.92
2023-03-11T01:20:50.094Z,9.92
2023-03-11T01:23:23.014Z,9.98
2023-03-11T01:25:55.733Z,9.84
2023-03-11T01:28:28.247Z,9.89
2023-03-11T01:31:01.130Z,9.82
2023-03-11T01:33:34.078Z,9.84
2023-03-11T01:36:08.016Z,9.97
2023-03-11T01:38:40.754Z,9.89
2023-03-11T01:41:14.529Z,9.90
2023-03-11T01:43:55.832Z,9.91
2023-03-11T01:46:38.792Z,9.87
2023-03-11T01:49:14.715Z,9.89
2023-03-11T01:51:52.114Z,9.81
2023-03-11T01:54:28.414Z,9.76
2023-03-11T01:57:02.151Z,9.79
2023-03-11T01:59:39.125Z,9.75
2023-03-11T02:02:17.922Z,9.74
2023-03-11T02:04:51.386Z,9.69
2023-03-11T02:07:25.072Z,9.85
2023-03-11T02:09:59.890Z,9.79
2023-03-11T02:12:38.007Z,9.76
2023-03-11T02:15:13.116Z,9.70
2023-03-11T02:17:46.330Z,9.68
2023-03-11T02:20:29.249Z,9.68
2023-03-11T02:23:03.569Z,9.77
2023-03-11T02:25:43.869Z,9.80
2023-03-11T02:28:19.161Z,9.66
2023-03-11T02:30:53.564Z,9.56
2023-03-11T02:33:29.134Z,9.41
2023-03-11T02:36:02.326Z,9.40
2023-03-11T02:38:35.099Z,9.16
2023-03-11T02:41:09.794Z,9.27
2023-03-11T02:43:46.413Z,9.33
2023-03-11T02:46:21.150Z,9.26
2023-03-11T02:48:55.506Z,9.42
2023-03-11T02:51:28.159Z,9.46
2023-03-11T02:54:04.571Z,9.29
2023-03-11T02:56:37.272Z,9.36
2023-03-11T02:59:10.046Z,9.35
2023-03-11T03:01:43.265Z,9.17
2023-03-11T03:04:15.751Z,9.15
2023-03-11T03:06:48.422Z,9.01
2023-03-11T03:09:23.745Z,8.94
2023-03-11T03:11:57.965Z,8.89
2023-03-11T03:14:30.989Z,8.65
2023-03-11T03:17:03.584Z,8.78
2023-03-11T03:19:36.130Z,8.98
2023-03-11T03:22:09.322Z,9.21
2023-03-11T03:24:41.920Z,9.37
2023-03-11T03:27:14.546Z,9.40
2023-03-11T03:29:47.088Z,9.26
2023-03-11T03:32:19.893Z,9.16
2023-03-11T03:34:59.174Z,9.11
2023-03-11T03:37:40.040Z,8.77
2023-03-11T03:40:14.366Z,8.57
2023-03-11T03:42:47.129Z,8.62
2023-03-11T03:45:20.345Z,8.63
2023-03-11T03:47:54.142Z,8.60
2023-03-11T03:50:27.513Z,8.51
2023-03-11T03:53:00.626Z,8.32
2023-03-11T03:55:33.173Z,8.30
2023-03-11T03:58:06.094Z,8.20
2023-03-11T04:00:40.647Z,8.04
2023-03-11T04:03:13.202Z,7.92
2023-03-11T04:05:50.722Z,7.91
2023-03-11T04:08:23.547Z,7.64
2023-03-11T04:11:02.388Z,7.58
2023-03-11T04:13:35.565Z,7.49
2023-03-11T04:16:09.691Z,7.50
2023-03-11T04:18:42.295Z,7.51
2023-03-11T04:21:15.083Z,7.42
2023-03-11T04:23:48.392Z,7.48
2023-03-11T04:26:21.722Z,7.45
2023-03-11T04:28:54.701Z,7.33
2023-03-11T04:31:29.269Z,7.34
2023-03-11T04:34:02.083Z,7.40
2023-03-11T04:36:35.181Z,7.34
2023-03-11T04:39:08.919Z,7.22
2023-03-11T04:41:45.851Z,7.15
2023-03-11T04:44:21.587Z,7.12
2023-03-11T04:46:55.031Z,7.17
2023-03-11T04:49:27.683Z,7.20
2023-03-11T04:52:00.334Z,7.14
2023-03-11T04:54:32.975Z,6.98
2023-03-11T04:57:06.127Z,6.92
2023-03-11T04:59:39.676Z,6.91
2023-03-11T05:02:13.033Z,6.80
2023-03-11T05:04:47.816Z,6.64
2023-03-11T05:07:20.634Z,6.70
2023-03-11T05:09:59.528Z,6.42
2023-03-11T05:12:32.184Z,6.33
2023-03-11T05:15:05.205Z,6.39
2023-03-11T05:17:40.435Z,6.26
2023-03-11T05:20:15.966Z,5.98
2023-03-11T05:22:49.077Z,5.95
2023-03-11T05:25:22.040Z,6.04
2023-03-11T05:27:57.682Z,6.09
2023-03-11T05:30:32.188Z,6.08
2023-03-11T05:33:04.867Z,6.14
2023-03-11T05:35:45.335Z,5.96
2023-03-11T05:38:18.115Z,5.87
2023-03-11T05:40:51.042Z,5.96
2023-03-11T05:43:24.916Z,6.05
2023-03-11T05:46:01.590Z,5.87
2023-03-11T05:48:34.390Z,6.02
2023-03-11T05:51:12.321Z,5.83
2023-03-11T05:53:48.755Z,5.72
2023-03-11T05:56:27.997Z,5.76
2023-03-11T05:59:01.538Z,5.53
2023-03-11T06:01:36.084Z,5.63
2023-03-11T06:04:10.410Z,5.76
2023-03-11T06:06:43.625Z,5.91
2023-03-11T06:09:17.445Z,5.83
2023-03-11T06:11:50.203Z,5.74
2023-03-11T06:14:26.675Z,5.47
2023-03-11T06:17:04.076Z,5.72
2023-03-11T06:19:37.096Z,5.70
2023-03-11T06:22:10.275Z,5.68
2023-03-11T06:24:42.956Z,5.54
2023-03-11T06:27:15.711Z,5.47
2023-03-11T06:29:48.801Z,5.48
2023-03-11T06:32:22.131Z,5.31
2023-03-11T06:34:57.107Z,5.31
2023-03-11T06:37:30.086Z,5.35
2023-03-11T06:40:03.774Z,5.28
2023-03-11T06:42:36.921Z,5.19
2023-03-11T06:45:13.250Z,5.20
2023-03-11T06:47:47.095Z,5.06
2023-03-11T06:50:23.689Z,5.18
2023-03-11T06:52:59.937Z,4.98
2023-03-11T06:55:32.604Z,5.06
2023-03-11T06:58:05.852Z,5.09
2023-03-11T07:00:41.704Z,4.91
2023-03-11T07:03:15.211Z,4.86
2023-03-11T07:05:51.097Z,5.07
2023-03-11T07:08:23.561Z,4.99
2023-03-11T07:11:05.287Z,5.00
2023-03-11T07:13:39.316Z,4.87
2023-03-11T07:16:15.626Z,4.84
2023-03-11T07:18:49.824Z,4.93
2023-03-11T07:21:24.581Z,4.91
2023-03-11T07:23:58.757Z,5.00
2023-03-11T07:26:32.804Z,4.97
2023-03-11T07:29:05.502Z,5.11
2023-03-11T07:31:38.651Z,5.16
2023-03-11T07:34:13.193Z,5.09
2023-03-11T07:36:45.675Z,5.07
2023-03-11T07:39:20.125Z,5.16
2023-03-11T07:41:51.253Z,5.12
2023-03-11T07:44:23.919Z,5.09
2023-03-11T07:46:56.344Z,5.13
2023-03-11T07:49:29.035Z,5.09
2023-03-11T07:52:02.075Z,5.06
2023-03-11T07:54:34.764Z,4.95
2023-03-11T07:57:08.706Z,4.97
2023-03-11T07:59:41.331Z,4.86
2023-03-11T08:02:14.051Z,4.77
2023-03-11T08:04:46.843Z,4.88
2023-03-11T08:07:20.801Z,4.94
2023-03-11T08:09:53.435Z,5.03
2023-03-11T08:12:25.972Z,4.98
2023-03-11T08:14:58.876Z,5.00
2023-03-11T08:17:31.303Z,4.79
2023-03-11T08:20:05.324Z,4.69
2023-03-11T08:22:43.401Z,4.75
2023-03-11T08:25:21.716Z,4.82
2023-03-11T08:27:54.223Z,4.68
2023-03-11T08:30:27.935Z,4.79
2023-03-11T08:33:00.462Z,4.68
2023-03-11T08:35:33.434Z,4.64
2023-03-11T08:38:06.639Z,4.59
2023-03-11T08:40:39.626Z,4.59
2023-03-11T08:43:15.393Z,4.64
2023-03-11T08:45:48.141Z,4.58
2023-03-11T08:48:20.853Z,4.61
2023-03-11T08:50:54.837Z,4.60
2023-03-11T08:53:27.761Z,4.60
2023-03-11T08:56:00.550Z,4.58
2023-03-11T08:58:32.974Z,4.63
2023-03-11T09:01:05.777Z,4.41
2023-03-11T09:03:38.636Z,4.57
2023-03-11T09:06:17.139Z,4.55
2023-03-11T09:08:50.971Z,4.49
2023-03-11T09:11:24.276Z,4.35
2023-03-11T09:13:56.748Z,4.36
2023-03-11T09:16:29.493Z,4.33
2023-03-11T09:19:06.924Z,4.44
2023-03-11T09:21:40.656Z,4.56
2023-03-11T09:24:13.338Z,4.42
2023-03-11T09:26:46.010Z,4.48
2023-03-11T09:29:18.439Z,4.44
2023-03-11T09:31:51.404Z,4.45
2023-03-11T09:34:24.464Z,4.48
2023-03-11T09:36:57.082Z,4.42
2023-03-11T09:39:29.516Z,4.56
2023-03-11T09:42:12.150Z,4.66
2023-03-11T09:44:50.799Z,4.67
2023-03-11T09:47:34.323Z,4.72
2023-03-11T09:50:27.769Z,4.89
2023-03-11T09:53:18.453Z,4.87
2023-03-11T09:55:53.712Z,4.86
2023-03-11T09:58:37.774Z,4.87
2023-03-11T10:01:18.617Z,4.90
2023-03-11T10:03:53.098Z,4.86
2023-03-11T10:06:27.252Z,4.85
2023-03-11T10:09:07.346Z,4.88
2023-03-11T10:11:55.495Z,4.81
2023-03-11T10:14:43.673Z,4.65
2023-03-11T10:17:32.998Z,4.62
2023-03-11T10:20:13.179Z,4.62
2023-03-11T10:22:56.102Z,4.60
2023-03-11T10:30:30.739Z,4.63
2023-03-11T10:33:07.995Z,4.69
2023-03-11T10:35:44.824Z,4.62
2023-03-11T10:38:21.032Z,4.68
2023-03-11T10:40:56.241Z,4.67
2023-03-11T10:43:35.196Z,4.70
2023-03-11T10:46:16.662Z,4.71
2023-03-11T10:48:49.223Z,4.62
2023-03-11T10:51:26.772Z,4.75
2023-03-11T10:54:00.920Z,4.75
2023-03-11T10:56:36.217Z,4.72
2023-03-11T10:59:25.560Z,5.00
2023-03-11T11:02:01.129Z,4.88
2023-03-11T11:04:40.394Z,4.85
2023-03-11T11:07:33.439Z,4.82
2023-03-11T11:10:21.702Z,4.80
2023-03-11T11:12:59.656Z,4.77
2023-03-11T11:15:34.952Z,4.71
2023-03-11T11:18:16.727Z,4.81
2023-03-11T11:21:00.989Z,4.89
2023-03-11T11:23:42.058Z,4.92
2023-03-11T11:26:22.097Z,4.95
2023-03-11T11:29:14.302Z,4.79
2023-03-11T11:31:49.174Z,4.82
2023-03-11T11:34:28.557Z,4.75
2023-03-11T11:37:03.626Z,4.71
2023-03-11T11:39:51.985Z,4.70
2023-03-11T11:42:27.706Z,4.77
2023-03-11T11:45:04.672Z,4.68
2023-03-11T11:47:43.253Z,4.63
2023-03-11T11:50:20.589Z,4.61
2023-03-11T11:52:58.708Z,4.44
2023-03-11T11:55:34.025Z,4.36
2023-03-11T11:58:11.336Z,4.42
2023-03-11T12:00:56.846Z,4.30
2023-03-11T12:04:06.409Z,4.28
2023-03-11T12:06:48.292Z,4.28
2023-03-11T12:09:31.626Z,4.29
2023-03-11T12:12:19.137Z,4.18
2023-03-11T12:15:02.235Z,4.27
2023-03-11T12:17:37.832Z,4.15
2023-03-11T12:20:15.711Z,4.29
2023-03-11T12:23:11.207Z,4.36
2023-03-11T12:25:59.511Z,4.66
2023-03-11T12:28:43.401Z,4.90
2023-03-11T12:31:16.416Z,4.95
2023-03-11T12:33:56.932Z,4.94
2023-03-11T12:36:34.170Z,5.04
2023-03-11T12:39:08.946Z,5.01
2023-03-11T12:41:43.071Z,4.99
2023-03-11T12:44:28.874Z,5.15
2023-03-11T12:47:35.562Z,5.17
2023-03-11T12:50:43.749Z,5.18
2023-03-11T12:53:20.723Z,5.22
2023-03-11T12:56:10.580Z,5.25
2023-03-11T12:59:07.681Z,5.15
2023-03-11T13:02:12.995Z,5.00
2023-03-11T13:04:58.340Z,5.12
2023-03-11T13:07:52.600Z,5.13
2023-03-11T13:10:39.739Z,5.09
2023-03-11T13:13:35.452Z,5.02
2023-03-11T13:16:44.321Z,4.96
2023-03-11T13:19:50.055Z,5.05
2023-03-11T13:22:46.199Z,5.03
2023-03-11T13:25:38.734Z,5.02
2023-03-11T13:28:32.180Z,4.93
2023-03-11T13:31:18.094Z,5.05
2023-03-11T13:33:55.534Z,5.25
2023-03-11T13:36:54.850Z,5.36
2023-03-11T13:39:44.413Z,5.37
2023-03-11T13:42:25.567Z,5.40
2023-03-11T13:44:59.182Z,5.31
2023-03-11T13:47:34.251Z,5.52
2023-03-11T13:50:11.528Z,5.65
2023-03-11T13:52:49.285Z,5.71
2023-03-11T13:55:25.218Z,5.92
2023-03-11T13:57:59.227Z,5.88
2023-03-11T14:00:34.103Z,5.77
2023-03-11T14:03:11.557Z,5.80
2023-03-11T14:05:49.081Z,5.74
2023-03-11T14:08:27.046Z,5.62
2023-03-11T14:11:00.943Z,5.78
2023-03-11T14:13:34.235Z,5.84
2023-03-11T14:16:10.270Z,5.96
2023-03-11T14:18:44.490Z,6.02
2023-03-11T14:21:19.383Z,5.82
2023-03-11T14:23:54.624Z,5.76
2023-03-11T14:26:30.523Z,5.65
2023-03-11T14:29:09.705Z,5.71
2023-03-11T14:31:44.812Z,5.80
2023-03-11T14:34:20.279Z,5.63
2023-03-11T14:36:57.081Z,5.83
2023-03-11T14:39:32.128Z,5.82
2023-03-11T14:42:13.868Z,5.89
2023-03-11T14:44:49.825Z,5.73
2023-03-11T14:47:32.073Z,5.63
2023-03-11T14:50:06.479Z,5.36
2023-03-11T14:52:44.894Z,5.53
2023-03-11T14:55:21.598Z,5.64
2023-03-11T14:57:56.058Z,5.58
2023-03-11T15:00:35.197Z,5.65
2023-03-11T15:03:15.027Z,5.56
2023-03-11T15:05:51.635Z,5.65
2023-03-11T15:08:27.977Z,5.66
2023-03-11T15:11:20.527Z,5.61
2023-03-11T15:13:54.119Z,5.50
2023-03-11T15:16:33.624Z,5.50
2023-03-11T15:19:24.848Z,5.27
2023-03-11T15:21:59.779Z,5.12
2023-03-11T15:24:31.651Z,5.19
2023-03-11T15:27:07.499Z,5.16
2023-03-11T15:29:40.526Z,4.90
2023-03-11T15:32:40.348Z,4.86
2023-03-11T15:35:20.567Z,4.79
2023-03-11T15:38:12.576Z,4.73
2023-03-11T15:40:53.937Z,4.81
2023-03-11T15:43:30.713Z,4.81
2023-03-11T15:46:05.173Z,4.70
2023-03-11T15:48:37.661Z,4.62
2023-03-11T15:51:21.361Z,4.75
2023-03-11T15:53:54.326Z,4.78
2023-03-11T15:56:28.010Z,4.74
2023-03-11T15:59:00.644Z,4.76
2023-03-11T16:01:33.880Z,4.80
2023-03-11T16:04:07.587Z,4.70
2023-03-11T16:06:40.137Z,4.70
2023-03-11T16:09:13.203Z,4.78
2023-03-11T16:11:46.271Z,4.70
2023-03-11T16:14:20.715Z,4.79
2023-03-11T16:16:53.311Z,4.72
2023-03-11T16:19:25.785Z,4.78
2023-03-11T16:21:58.872Z,4.84
2023-03-11T16:24:31.730Z,4.68
2023-03-11T16:27:04.230Z,4.63
2023-03-11T16:29:36.739Z,4.72
2023-03-11T16:32:10.806Z,4.78
2023-03-11T16:34:43.283Z,4.83
2023-03-11T16:37:20.789Z,4.88
2023-03-11T16:39:53.774Z,4.64
2023-03-11T16:42:26.374Z,4.53
2023-03-11T16:44:58.834Z,4.70
2023-03-11T16:47:31.369Z,4.72
2023-03-11T16:50:06.936Z,4.77
2023-03-11T16:52:39.737Z,4.61
2023-03-11T16:55:14.437Z,4.62
2023-03-11T16:57:47.154Z,4.64
2023-03-11T17:00:20.261Z,4.73
2023-03-11T17:02:53.693Z,4.70
2023-03-11T17:05:26.137Z,4.77
2023-03-11T17:08:01.166Z,4.76
2023-03-11T17:10:36.975Z,4.77
2023-03-11T17:13:10.775Z,4.69
2023-03-11T17:15:44.621Z,4.75
2023-03-11T17:18:17.114Z,4.76
2023-03-11T17:20:49.518Z,4.83
2023-03-11T17:23:22.533Z,4.75
2023-03-11T17:25:55.280Z,4.79
2023-03-11T17:28:28.018Z,4.68
2023-03-11T17:31:00.710Z,4.80
2023-03-11T17:33:33.388Z,4.81
2023-03-11T17:36:08.130Z,4.73
2023-03-11T17:38:39.069Z,4.73
2023-03-11T17:41:13.732Z,4.65
2023-03-11T17:43:44.869Z,4.70
2023-03-11T17:46:19.252Z,4.64
2023-03-11T17:48:52.472Z,4.62
2023-03-11T17:51:27.091Z,4.61
2023-03-11T17:53:59.853Z,4.64
2023-03-11T17:56:32.886Z,4.57
2023-03-11T17:59:05.332Z,4.61
2023-03-11T18:01:37.754Z,4.63
2023-03-11T18:04:10.305Z,4.64
2023-03-11T18:06:43.417Z,4.68
2023-03-11T18:09:17.783Z,4.72
2023-03-11T18:11:50.170Z,4.73
2023-03-11T18:14:23.647Z,4.70
2023-03-11T18:16:56.892Z,4.65
2023-03-11T18:19:30.051Z,4.57
2023-03-11T18:22:02.754Z,4.67
2023-03-11T18:24:35.780Z,4.56
2023-03-11T18:27:09.357Z,4.47
2023-03-11T18:29:42.017Z,4.52
2023-03-11T18:32:14.495Z,4.47
2023-03-11T18:34:50.600Z,4.28
2023-03-11T18:37:23.430Z,4.44
2023-03-11T18:39:55.915Z,4.45
2023-03-11T18:42:28.522Z,4.50
2023-03-11T18:45:01.000Z,4.18
2023-03-11T18:47:36.426Z,4.26
2023-03-11T18:50:10.454Z,4.34
2023-03-11T18:52:43.094Z,4.54
2023-03-11T18:55:15.996Z,4.35
2023-03-11T18:57:48.829Z,4.42
2023-03-11T19:00:23.788Z,4.38
2023-03-11T19:02:56.997Z,4.27
2023-03-11T19:05:29.617Z,4.18
2023-03-11T19:08:02.246Z,4.14
2023-03-11T19:10:34.692Z,4.22
2023-03-11T19:13:07.411Z,4.23
2023-03-11T19:15:43.037Z,4.23
2023-03-11T19:18:16.340Z,4.25
2023-03-11T19:20:58.918Z,4.35
2023-03-11T19:23:31.714Z,4.42
2023-03-11T19:26:04.657Z,4.30
2023-03-11T19:28:38.147Z,4.29
2023-03-11T19:31:10.689Z,4.22
2023-03-11T19:33:43.417Z,4.21
2023-03-11T19:36:16.710Z,4.15
2023-03-11T19:38:49.481Z,4.08
2023-03-11T19:41:23.307Z,4.16
2023-03-11T19:43:55.781Z,4.14
2023-03-11T19:46:29.661Z,4.18
2023-03-11T19:49:02.306Z,4.11
2023-03-11T19:51:49.062Z,4.19
2023-03-11T19:54:23.130Z,4.17
2023-03-11T19:56:55.854Z,4.19
2023-03-11T19:59:28.566Z,4.14
2023-03-11T20:02:01.458Z,4.04
2023-03-11T20:04:34.175Z,4.05
2023-03-11T20:07:07.742Z,4.04
2023-03-11T20:09:40.216Z,4.07
2023-03-11T20:12:12.905Z,3.99
2023-03-11T20:14:46.438Z,4.06
2023-03-11T20:17:19.759Z,3.90
2023-03-11T20:19:52.219Z,3.95
2023-03-11T20:22:24.712Z,4.02
2023-03-11T20:24:57.531Z,3.96
2023-03-11T20:27:30.715Z,3.91
2023-03-11T20:30:03.424Z,3.90
2023-03-11T20:32:36.289Z,3.95
2023-03-11T20:35:11.566Z,3.97
2023-03-11T20:37:45.246Z,3.92
2023-03-11T20:40:18.698Z,3.93
2023-03-11T20:42:51.460Z,4.05
2023-03-11T20:45:23.947Z,3.89
2023-03-11T20:47:57.283Z,4.00
2023-03-11T20:50:29.815Z,3.95
2023-03-11T20:53:02.598Z,3.83
2023-03-11T20:55:35.059Z,3.81
2023-03-11T20:58:08.650Z,3.82
2023-03-11T21:00:41.688Z,3.85
2023-03-11T21:03:14.217Z,3.86
2023-03-11T21:05:47.601Z,3.96
2023-03-11T21:08:20.163Z,3.85
2023-03-11T21:10:52.702Z,3.72
2023-03-11T21:13:25.352Z,3.75
2023-03-11T21:15:57.781Z,3.74
2023-03-11T21:18:30.559Z,3.65
2023-03-11T21:21:04.017Z,3.65
2023-03-11T21:23:37.103Z,3.81
2023-03-11T21:26:10.020Z,3.73
2023-03-11T21:28:47.100Z,3.69
2023-03-11T21:31:21.993Z,3.82
2023-03-11T21:33:55.500Z,3.86
2023-03-11T21:36:28.843Z,3.66
2023-03-11T21:39:03.588Z,3.79
2023-03-11T21:41:36.805Z,4.01
2023-03-11T21:44:09.392Z,4.03
2023-03-11T21:46:41.928Z,3.77
2023-03-11T21:49:25.231Z,3.42
2023-03-11T21:52:21.037Z,3.52
2023-03-11T21:55:04.405Z,3.49
2023-03-11T21:57:54.893Z,3.45
2023-03-11T22:00:37.290Z,3.53
2023-03-11T22:03:10.218Z,3.71
2023-03-11T22:05:43.232Z,3.45
2023-03-11T22:08:16.042Z,3.29
2023-03-11T22:10:48.823Z,3.21
2023-03-11T22:13:21.759Z,3.38
2023-03-11T22:15:54.482Z,3.40
2023-03-11T22:18:27.257Z,3.40
2023-03-11T22:21:01.748Z,3.45
2023-03-11T22:23:35.015Z,3.31
2023-03-11T22:26:07.942Z,3.24
2023-03-11T22:28:40.367Z,3.31
2023-03-11T22:31:15.335Z,3.28
2023-03-11T22:33:47.991Z,3.18
2023-03-11T22:36:20.440Z,3.03
2023-03-11T22:38:53.116Z,3.08
2023-03-11T22:41:25.693Z,3.17
2023-03-11T22:43:58.086Z,3.33
2023-03-11T22:46:31.310Z,3.18
2023-03-11T22:49:03.784Z,2.95
2023-03-11T22:51:36.171Z,2.94
2023-03-11T22:54:08.642Z,2.79
2023-03-11T22:56:41.209Z,2.90
2023-03-11T22:59:13.699Z,2.94
2023-03-11T23:01:46.485Z,3.09
2023-03-11T23:04:19.188Z,2.99
2023-03-11T23:06:54.491Z,3.05
2023-03-11T23:09:27.548Z,3.01
2023-03-11T23:12:03.820Z,3.00
2023-03-11T23:14:44.519Z,2.88
2023-03-11T23:17:19.525Z,3.19
2023-03-11T23:19:52.241Z,2.98
2023-03-11T23:22:24.838Z,3.14
2023-03-11T23:24:57.402Z,3.09
2023-03-11T23:27:31.382Z,2.91
2023-03-11T23:30:03.885Z,2.81
2023-03-11T23:32:36.593Z,2.95
2023-03-11T23:35:10.805Z,3.05
2023-03-11T23:37:43.346Z,3.12
2023-03-11T23:40:16.919Z,2.97
2023-03-11T23:42:51.838Z,2.86
2023-03-11T23:45:24.277Z,2.76
2023-03-11T23:47:56.781Z,2.81
2023-03-11T23:50:29.260Z,2.78
2023-03-11T23:53:01.760Z,2.81
2023-03-11T23:55:37.575Z,2.87
2023-03-11T23:58:10.068Z,3.09
